Tiempo atmosférico en la estación meteorológica de Bardenas Reales, Base Aérea, Navarra (295 m.)



Fecha
DESCASC
Temp. máxima en grados centígrados (hora)
DESCASC
Temp. mínima en grados centígrados (hora)
DESCASC
Temp. media en grados centígrados
DESCASC
Racha de viento máxima en m/sg (hora)
DESCASC
Velocidad máxima media en intervalos de 10 minutos(hora)
DESCASC
Precipitaciones diarias en mm
DESCASC
Precipitaciones de 00:00 a 06:00 en mm
DESCASC
Precipitaciones de 06:00 a 12:00 en mm
DESCASC
Precipitaciones de 12:00 a 18:00 en mm
DESCASC
Precipitaciones de 18:00 a 24:00 en mm
DESCASC
22-11-2020 13.9 (16:20) -3.3 (07:50) 5.3 3.61 (00:50) 2.5 (01:00) 0 0 0 0 0
21-11-2020 14.5 (15:20) 1.2 (08:30) 7.9 16.39 (00:20) 11.39 (00:20) 0 0 0 0 0
20-11-2020 14 (14:20) 7.9 (23:50) 11 21.67 (13:10) 16.11 (14:00) 0 0 0 0 0
19-11-2020 19 (13:20) 3.6 (00:00) 11.3 15.56 (16:40) 11.39 (16:20) 0 0 0 0 0
18-11-2020 17.5 (15:20) 2.4 (00:00) 10 5.28 (01:20) 4.72 (01:20) 0 0 0 0 0
17-11-2020 18 (15:10) 3.6 (00:00) 10.8 6.39 (21:30) 5.56 (22:50) 0 0 0 0 0
16-11-2020 16.7 (14:30) 8.4 (00:00) 12.6 12.5 (13:20) 8.33 (07:30) 0.8 0.6 0.2 0 0
15-11-2020 18.4 (14:50) 6.7 (00:00) 12.5 9.72 (11:30) 8.33 (12:10) 0 0 0 0 0
14-11-2020 14.9 (15:30) 6.5 (00:00) 10.7 6.67 (13:20) 4.44 (13:20) 0 0 0 0 0
13-11-2020 11.8 (16:40) 9 (00:00) 10.4 6.11 (23:20) 4.72 (23:59) 0 0 0 0 0
12-11-2020 11.7 (15:20) 8.7 (00:00) 10.2 5 (23:50) 3.61 (23:50) 0 0 0 0 0
11-11-2020 16.3 (15:00) 6 (00:00) 11.1 7.5 (14:20) 5.28 (14:40) 0 0 0 0 0
10-11-2020 19 (15:10) 5.6 (00:00) 12.3 10.56 (14:30) 7.78 (14:30) 0.2 0.2 0 0 0
09-11-2020 17.9 (16:30) 8.8 (00:00) 13.3 8.61 (04:30) 6.67 (04:30) -- -- 0 0 0
08-11-2020 17.6 (14:20) 10.2 (00:00) 13.9 10 (16:10) 8.33 (16:10) -- -- -- -- --
07-11-2020 17.1 (02:20) 12.3 (00:00) 14.7 18.61 (00:50) 12.78 (00:50) -- -- -- -- --
06-11-2020 18.3 (14:20) 11.8 (00:00) 15 21.39 (20:00) 14.72 (20:30) 0 0 0 0 0
05-11-2020 14.8 (16:00) 8.4 (00:00) 11.6 7.5 (15:00) 5.28 (15:00) 0 0 0 0 0
04-11-2020 11.3 (12:40) 7.8 (00:00) 9.6 12.5 (04:30) 9.44 (04:30) 0 0 0 0 0
03-11-2020 14.8 (00:00) 9.3 (00:00) 12.1 15.28 (20:30) 11.11 (20:30) 0 0 0 0 0
02-11-2020 23.8 (15:20) 9.5 (00:00) 16.6 7.5 (20:00) 5.28 (02:00) 0 0 0 0 0
01-11-2020 24.4 (15:20) 5 (00:00) 14.7 3.89 (00:40) 3.06 (00:40) 0 0 0 0 0
31-10-2020 22.6 (15:50) 3.1 (00:00) 12.9 8.33 (16:20) 5.83 (16:20) 0 0 0 0 0
30-10-2020 21.8 (16:40) 3.4 (00:00) 12.6 4.72 (14:40) 3.06 (18:00) 0 0 0 0 0
29-10-2020 21.6 (16:10) 5 (00:00) 13.3 4.17 (18:10) 3.89 (18:20) 0 0 0 0 0
28-10-2020 21.1 (15:10) 6 (00:00) 13.6 4.72 (15:50) 3.33 (18:10) 0 0 0 0 0
27-10-2020 18.2 (15:20) 2.6 (00:00) 10.4 4.17 (17:40) 3.33 (20:30) 0 0 0 0 0
26-10-2020 15.8 (16:00) 5.7 (00:00) 10.8 14.72 (16:30) 9.72 (14:10) 1.4 0.4 0.4 0.4 0.2

Gráficas

Temp. máximas Temp. mínimas Temp. medias Precipitaciones Rachas de viento máximas Velocidades máximas media en intervalos de 10 minutos

Datos horarios

Fecha y hora oficial Temperatura (ºC) Velocidad del viento (km/h) Dirección del viento Racha (km/h) Dirección de racha Precipitación (mm) Presión (hPa) Tendencia (hPa) Humedad (%)
2020-11-24 23:00:00 3.5 4 Sudeste 10 Este 0 984.1 -0.6 83
2020-11-24 22:00:00 3.7 4 Sudeste 10 Este 0 984.4 -0.3 82
2020-11-24 21:00:00 5 2 Sur 4 Este 0 984.5 0 81
2020-11-24 20:00:00 5.9 3 Norte 4 Norte 0 984.7 0.2 79
2020-11-24 19:00:00 6.5 3 Sudeste 10 Noroeste 0 984.7 -- 76
2020-11-24 18:00:00 8.3 7 Noroeste 9 Noroeste 0 984.5 -- 70
2020-11-24 17:00:00 10.5 5 Sudoeste 10 Sudoeste 0 984.5 -- 62
2020-11-24 16:00:00 11.3 8 Sudoeste 13 Sur 0 984.7 -- 60
2020-11-24 15:00:00 11.4 6 Sudoeste 13 Sudoeste 0 985.3 -- 59
2020-11-24 14:00:00 10.4 6 Sudoeste 10 Sur 0 986.3 -- 61
2020-11-24 13:00:00 9.1 5 Sudoeste 11 Sur 0 987.2 -- 67
2020-11-24 12:00:00 7 2 Sur 9 Sudoeste 0 988.6 -- 72
2020-11-24 11:00:00 4.2 5 Sur 8 Sur 0 989.4 -- 81
2020-11-24 10:00:00 2 2 Sur 5 Sur 0 989.5 -- 86
2020-11-24 09:00:00 -1.6 3 Este 6 Nordeste 0 989.3 -- 92
2020-11-24 08:00:00 -2.1 4 Oeste 6 Oeste 0 989.1 -- 91
2020-11-24 07:00:00 -1.3 0 Calma 5 Sudeste 0 989 -- 92
2020-11-24 06:00:00 -1 3 Sudoeste 6 Oeste 0 989.1 -- 92
2020-11-24 05:00:00 -1.1 5 Oeste 6 Oeste 0 989.2 -- 91
2020-11-24 04:00:00 -0.2 3 Este 7 Nordeste 0 989.7 -- 90
2020-11-24 03:00:00 0.2 3 Oeste 8 Nordeste 0 990.2 -- 90
2020-11-24 02:00:00 0.5 3 Nordeste 8 Este 0 990.4 -- 88
2020-11-24 01:00:00 0.7 2 Norte 7 Noroeste 0 990.9 -- 86
2020-11-24 00:00:00 1.8 5 Noroeste 7 Noroeste 0 991.1 -- 84
2020-11-23 23:00:00 1.6 2 Oeste 5 Noroeste 0 991.5 -- 80
2020-11-23 22:00:00 3.1 4 Oeste 7 Oeste 0 991.6 -- 81
2020-11-23 21:00:00 3.5 4 Noroeste 8 Noroeste 0 991.5 -- 78
2020-11-23 20:00:00 5.2 3 Este 9 Este 0 991.5 -- 74
2020-11-23 19:00:00 7.3 5 Sudeste 7 Sudeste 0 991.3 -- 64
2020-11-23 18:00:00 10.6 4 Norte 5 Norte 0 991.1 -- 54
2020-11-23 17:00:00 12.6 3 Norte 6 Sudoeste 0 991 -- 46
2020-11-23 16:00:00 13.5 3 Sudoeste 8 Oeste 0 991.2 -- 45
2020-11-23 15:00:00 13.1 3 Noroeste 8 Oeste 0 991.6 -- 49
2020-11-23 14:00:00 12.1 5 Sudeste 8 Este 0 992.4 -- 52
2020-11-23 13:00:00 10.7 4 Sudoeste 9 Sur 0 993.2 -- 57
2020-11-23 12:00:00 9.1 3 Sudoeste 10 Sudeste 0 994.1 -- 63
2020-11-23 11:00:00 6.1 4 Sudeste 8 Sudeste 0 994.4 -- 75
2020-11-23 10:00:00 1.8 4 Norte 6 Norte 0 994.2 -- 85
2020-11-23 09:00:00 -1 0 Calma 4 Noroeste 0 993.9 -- 88
2020-11-23 08:00:00 -2.9 0 Calma 3 Nordeste 0 993.4 -- 88
2020-11-23 07:00:00 -2.7 2 Nordeste 5 Norte 0 992.9 -- 88
2020-11-23 06:00:00 -2.3 0 Calma 4 Norte 0 993.1 -- 85
2020-11-23 05:00:00 -1.7 0 Calma 3 Norte 0 993.1 -- 88
2020-11-23 04:00:00 -1.4 0 Calma 3 Oeste 0 993 -- 87
2020-11-23 03:00:00 -1.3 0 Calma 3 Norte 0 993.2 -- 84
2020-11-23 02:00:00 -0.2 0 Calma 4 Sudeste 0 993.2 -- 86
2020-11-23 01:00:00 0.1 3 Noroeste 5 Noroeste 0 993.2 -- 83
2020-11-23 00:00:00 0.7 5 Noroeste 6 Noroeste 0 993.2 -- 82
2020-11-22 23:00:00 1.4 6 Noroeste 8 Noroeste 0 993.2 -- 80
2020-11-22 22:00:00 2.6 2 Norte 4 Sur 0 993 -- 77
2020-11-22 21:00:00 3.2 3 Noroeste 6 Este 0 992.8 -- 72
2020-11-22 20:00:00 4.5 4 Sudeste 9 Sudeste 0 992.4 -- 67
2020-11-22 19:00:00 6.4 4 Sudeste 6 Sudeste 0 991.9 -- 60
2020-11-22 18:00:00 10.7 2 Sudoeste 3 Oeste 0 991.6 -- 47
2020-11-22 17:00:00 12.8 3 Oeste 4 Oeste 0 991.3 -- 41
2020-11-22 16:00:00 13.5 2 Sudeste 9 Sudeste 0 991.2 -- 37
2020-11-22 15:00:00 13.3 3 Sudoeste 7 Sudoeste 0 991.5 -- 40
2020-11-22 14:00:00 11.6 2 Oeste 6 Sur 0 992.3 -- 49
2020-11-22 13:00:00 10.1 3 Oeste 9 Sudoeste 0 993.1 -- 54
2020-11-22 12:00:00 7.9 3 Sudoeste 9 Oeste 0 993.9 -- 62
2020-11-22 11:00:00 5.1 3 Sudoeste 6 Sudeste 0 994.4 -- 74
2020-11-22 10:00:00 2 3 Sur 5 Sur 0 994.6 -- 83
2020-11-22 09:00:00 -1.2 3 Noroeste 8 Noroeste 0 994.2 -- 89
2020-11-22 08:00:00 -3 2 Oeste 5 Este 0 993.6 -- 92
2020-11-22 07:00:00 -2.5 0 Calma 8 Sudeste 0 993.5 -- 90
2020-11-22 06:00:00 -1.8 3 Sudeste 5 Sur 0 993.4 -- 90
2020-11-22 05:00:00 -1.2 0 Calma 5 Sudeste 0 993.3 -- 88
2020-11-22 04:00:00 0 3 Sur 5 Este 0 993.2 -- 86
2020-11-22 03:00:00 1.2 4 Este 6 Sudeste 0 993.2 -- 87
2020-11-22 02:00:00 1.9 5 Sudeste 10 Este 0 993.4 -- 84
2020-11-22 01:00:00 2.3 9 Este 13 Este 0 993.5 -- 84
2020-11-22 00:00:00 3.3 4 Este 19 Este 0 993.6 -- 79
2020-11-21 23:00:00 2.9 15 Este 18 Este 0 993.8 -- 80
2020-11-21 22:00:00 4.7 9 Este 13 Este 0 993.7 -- 73
2020-11-21 21:00:00 4.1 0 Calma 9 Este 0 993.4 -- 71
2020-11-21 20:00:00 5.8 3 Este 17 Este 0 993.2 -- 64
2020-11-21 19:00:00 6.4 12 Sudeste 17 Este 0 993.1 -- 62
2020-11-21 18:00:00 9.3 17 Este 18 Este 0 992.6 -- 52
2020-11-21 17:00:00 12.6 12 Este 18 Este 0 992.5 -- 39
2020-11-21 16:00:00 13.2 13 Este 19 Este 0 992.5 -- 41
2020-11-21 15:00:00 14.1 4 Sudeste 15 Este 0 992.8 -- 32
2020-11-21 14:00:00 12.4 9 Este 16 Este 0 993.2 -- 40
2020-11-21 13:00:00 12.1 2 Sur 8 Sudoeste 0 993.9 -- 38
2020-11-21 12:00:00 10.5 2 Sur 6 Sudoeste 0 994.4 -- 44
2020-11-21 11:00:00 8.4 2 Noroeste 7 Norte 0 994.6 -- 52
2020-11-21 10:00:00 5.7 6 Este 15 Este 0 994.2 -- 66
2020-11-21 09:00:00 2.4 11 Este 18 Este 0 993.8 -- 79
2020-11-21 08:00:00 2.4 4 Sudoeste 9 Sudeste 0 993.3 -- 74
2020-11-21 07:00:00 3.3 4 Nordeste 7 Sudoeste 0 992.8 -- 74
2020-11-21 06:00:00 3.1 5 Sur 12 Noroeste 0 992.5 -- 72
2020-11-21 05:00:00 4.7 10 Noroeste 30 Oeste 0 992.4 -- 67
2020-11-21 04:00:00 6.3 18 Oeste 30 Oeste 0 992.6 -- 59
2020-11-21 03:00:00 6.8 16 Oeste 34 Noroeste 0 993 -- 57
2020-11-21 02:00:00 7.8 32 Noroeste 48 Noroeste 0 993.2 -- 54
2020-11-21 01:00:00 7.7 22 Noroeste 59 Noroeste 0 993.8 -- 54
2020-11-21 00:00:00 8.1 38 Noroeste 62 Noroeste 0 993.8 -- 55
2020-11-20 23:00:00 8.3 41 Noroeste 60 Noroeste 0 994.4 -- 55
2020-11-20 22:00:00 8.4 29 Oeste 52 Noroeste 0 993.9 -- 47
2020-11-20 21:00:00 9 37 Oeste 58 Oeste 0 993.8 -- 47
2020-11-20 20:00:00 9.1 33 Oeste 53 Oeste 0 994.3 -- 51
2020-11-20 19:00:00 9.7 35 Oeste 57 Noroeste 0 994.7 -- 47
2020-11-20 18:00:00 10.6 42 Oeste 57 Noroeste 0 994.8 -- 40
2020-11-20 17:00:00 12.2 36 Noroeste 66 Noroeste 0 994.4 -- 36
2020-11-20 16:00:00 13.4 50 Noroeste 74 Noroeste 0 993.5 -- 33
2020-11-20 15:00:00 13.7 53 Noroeste 77 Noroeste 0 993.9 -- 36
2020-11-20 14:00:00 13.5 58 Noroeste 78 Noroeste 0 994.4 -- 39
2020-11-20 13:00:00 13.2 52 Noroeste 75 Noroeste 0 995.2 -- 45
2020-11-20 12:00:00 12.5 54 Noroeste 74 Noroeste 0 996.1 -- 51
2020-11-20 11:00:00 12 51 Noroeste 67 Noroeste 0 996.8 -- 51
2020-11-20 10:00:00 10.9 43 Noroeste 60 Noroeste 0 997.2 -- 64
2020-11-20 09:00:00 9.7 33 Noroeste 46 Oeste 0 997.4 -- 73
2020-11-20 08:00:00 8.9 29 Oeste 49 Oeste 0 997.3 -- 73
2020-11-20 07:00:00 8.8 33 Noroeste 63 Noroeste 0 997.1 -- 70
2020-11-20 06:00:00 8.9 41 Noroeste 61 Noroeste 0 996.8 -- 66
2020-11-20 05:00:00 9 38 Noroeste 53 Oeste 0 997.2 -- 68
2020-11-20 04:00:00 9.5 35 Oeste 62 Oeste 0 997.5 -- 66
2020-11-20 03:00:00 9.5 45 Noroeste 59 Noroeste 0 997.5 -- 66
2020-11-20 02:00:00 9.4 30 Noroeste 44 Noroeste 0 998 -- 68
2020-11-20 01:00:00 9.6 32 Oeste 49 Noroeste 0 999 -- 69
2020-11-20 00:00:00 9.9 36 Noroeste 48 Oeste 0 998.8 -- 67
2020-11-19 23:00:00 10.2 28 Noroeste 54 Noroeste 0 999.5 -- 68
2020-11-19 22:00:00 10 21 Noroeste 34 Noroeste 0 999.3 -- 75
2020-11-19 21:00:00 10 24 Noroeste 44 Noroeste 0 999.5 -- 74
2020-11-19 20:00:00 10.4 26 Noroeste 40 Noroeste 0 999.3 -- 73
2020-11-19 19:00:00 11.6 33 Noroeste 55 Noroeste 0 998.6 -- 70
2020-11-19 18:00:00 12.6 37 Noroeste 51 Noroeste 0 998.1 -- 68
2020-11-19 17:00:00 14.4 34 Noroeste 56 Noroeste 0 997.8 -- 65
2020-11-19 16:00:00 16.8 35 Noroeste 52 Noroeste 0 997.1 -- 56
2020-11-19 15:00:00 17.9 31 Noroeste 53 Noroeste 0 996.6 -- 59
2020-11-19 14:00:00 18.8 32 Noroeste 46 Noroeste 0 996.8 -- 56
2020-11-19 13:00:00 18.6 36 Noroeste 49 Noroeste 0 996.9 -- 60
2020-11-19 12:00:00 17.8 26 Noroeste 38 Noroeste 0 997.4 -- 68
2020-11-19 11:00:00 17.1 24 Noroeste 39 Oeste 0 997.8 -- 71
2020-11-19 10:00:00 14.7 28 Oeste 40 Oeste 0 997.1 -- 79
2020-11-19 09:00:00 7.9 5 Sudeste 10 Sudeste 0 996.6 -- 100
2020-11-19 08:00:00 4.7 6 Sur 9 Sur 0 995.9 -- --
2020-11-19 07:00:00 3.8 3 Nordeste 9 Sudoeste 0 995.6 -- --
2020-11-19 06:00:00 4 3 Este 5 Sudoeste 0 994.9 -- 100
2020-11-19 05:00:00 3.8 2 Sudoeste 6 Sudeste 0 994.6 -- 98
2020-11-19 04:00:00 4.5 4 Oeste 6 Noroeste 0 994.6 -- 95
2020-11-19 03:00:00 4.7 0 Calma 7 Noroeste 0 994.2 -- 93
2020-11-19 02:00:00 5.4 0 Calma 5 Noroeste 0 994.1 -- 92
2020-11-19 01:00:00 6 4 Noroeste 5 Noroeste 0 994.4 -- 93
2020-11-19 00:00:00 6.6 4 Noroeste 6 Noroeste 0 994 -- 92
2020-11-18 23:00:00 7.5 2 Sudeste 8 Oeste 0 993.5 -- 89
2020-11-18 22:00:00 7.7 6 Oeste 8 Oeste 0 993 -- 86
2020-11-18 21:00:00 9.3 3 Oeste 4 Oeste 0 992.4 -- 84
2020-11-18 20:00:00 10.5 0 Calma 3 Norte 0 991.9 -- 79
2020-11-18 19:00:00 12 2 Nordeste 6 Oeste 0 991.6 -- 75
2020-11-18 18:00:00 14.2 5 Sudoeste 7 Sudoeste 0 991.3 -- 67
2020-11-18 17:00:00 16.4 6 Sudoeste 9 Sudoeste 0 991.1 -- 60
2020-11-18 16:00:00 17.1 5 Sur 10 Sudoeste 0 991.1 -- 58
2020-11-18 15:00:00 17.1 4 Oeste 10 Sudoeste 0 991.2 -- 59
2020-11-18 14:00:00 15.5 5 Sudoeste 11 Sudoeste 0 991.7 -- 63
2020-11-18 13:00:00 13.6 3 Sudoeste 6 Oeste 0 992.5 -- 71
2020-11-18 12:00:00 10.2 2 Sur 5 Sudeste 0 993 -- 88
2020-11-18 11:00:00 6.4 3 Sur 5 Sur 0 993.4 -- 100
2020-11-18 10:00:00 4.7 3 Sur 5 Sur 0 993 -- 100
2020-11-18 09:00:00 3.3 2 Este 5 Este 0 992.8 -- 100
2020-11-18 08:00:00 2.4 2 Sudeste 5 Sudoeste 0 992.3 -- 100
2020-11-18 07:00:00 3.3 2 Noroeste 6 Norte 0 991.9 -- 100
2020-11-18 06:00:00 3.7 3 Oeste 9 Sudeste 0 991.5 -- 98
2020-11-18 05:00:00 4.8 2 Sudeste 6 Sudeste 0 991.3 -- 94
2020-11-18 04:00:00 5.6 4 Sudeste 7 Sudeste 0 991.3 -- 93
2020-11-18 03:00:00 6.7 3 Noroeste 16 Este 0 991.3 -- 88
2020-11-18 02:00:00 7.9 15 Este 19 Este 0 991.4 -- 89
2020-11-18 01:00:00 8.1 9 Este 18 Este 0 991.8 -- 87
2020-11-18 00:00:00 8.4 8 Sudeste 21 Este 0 991.8 -- 86
2020-11-17 23:00:00 9.4 19 Este 22 Este 0 991.7 -- 84
2020-11-17 22:00:00 9.6 18 Este 23 Este 0 991.4 -- 83
2020-11-17 21:00:00 10 15 Este 18 Este 0 991.2 -- 82
2020-11-17 20:00:00 10.6 2 Este 14 Este 0 991 -- 74
2020-11-17 19:00:00 12.3 11 Este 17 Este 0 990.6 -- 69
2020-11-17 18:00:00 13.3 13 Este 14 Este 0 990.1 -- 67
2020-11-17 17:00:00 16.1 5 Nordeste 9 Nordeste 0 990.1 -- 58
2020-11-17 16:00:00 16 2 Nordeste 9 Sudoeste 0 990.1 -- 56
2020-11-17 15:00:00 17.8 4 Sudoeste 10 Sudoeste 0 990.3 -- 51
2020-11-17 14:00:00 16.5 3 Sudeste 11 Sudoeste 0 990.8 -- 55
2020-11-17 13:00:00 14.8 6 Sudoeste 12 Sur 0 991.3 -- 60
2020-11-17 12:00:00 13.2 4 Sudoeste 12 Sudoeste 0 992.1 -- 63
2020-11-17 11:00:00 11.1 2 Norte 5 Norte 0 992.1 -- 68
2020-11-17 10:00:00 8.1 2 Sudoeste 6 Noroeste 0 992.1 -- 88
2020-11-17 09:00:00 5.1 3 Noroeste 8 Sudeste 0 991.7 -- 92
2020-11-17 08:00:00 4.5 5 Este 10 Noroeste 0 991.4 -- 100
2020-11-17 07:00:00 4.6 5 Noroeste 10 Oeste 0 991 -- 96
2020-11-17 06:00:00 5.3 3 Oeste 9 Oeste 0 991 -- 94
2020-11-17 05:00:00 5.7 4 Sudeste 9 Sur 0 991 -- 93
2020-11-17 04:00:00 6 5 Sudoeste 10 Sudeste 0 990.8 -- 89
2020-11-17 03:00:00 6.5 5 Sudoeste 10 Sur 0 990.8 -- 87
2020-11-17 02:00:00 7 5 Noroeste 14 Noroeste 0 991 -- 85
2020-11-17 01:00:00 7.2 5 Norte 13 Noroeste 0 991 -- 85
2020-11-17 00:00:00 8.7 5 Oeste 14 Oeste 0 991.3 -- 80
2020-11-16 23:00:00 8.9 13 Oeste 19 Oeste 0 991.2 -- 80
2020-11-16 22:00:00 10 10 Sudoeste 17 Sudoeste 0 991 -- 76
2020-11-16 21:00:00 10 12 Oeste 24 Noroeste 0 990.9 -- 74
2020-11-16 20:00:00 10.8 14 Noroeste 21 Noroeste 0 990.5 -- 71
2020-11-16 19:00:00 11.5 13 Noroeste 21 Noroeste 0 990.1 -- 67
2020-11-16 18:00:00 12.8 14 Noroeste 29 Noroeste 0 989.8 -- 61
2020-11-16 17:00:00 14.6 21 Noroeste 37 Noroeste 0 989.7 -- 56
2020-11-16 16:00:00 15.7 27 Noroeste 40 Noroeste 0 989.5 -- 52
2020-11-16 15:00:00 16.4 27 Noroeste 43 Noroeste 0 989.1 -- 54
2020-11-16 14:00:00 16.2 26 Noroeste 45 Noroeste 0 989.1 -- 54
2020-11-16 13:00:00 15.7 27 Noroeste 39 Noroeste 0 989.4 -- 55
2020-11-16 12:00:00 15.6 24 Noroeste 37 Noroeste 0 989.8 -- 63
2020-11-16 11:00:00 14.6 26 Noroeste 36 Noroeste 0 989.6 -- 70
2020-11-16 10:00:00 13.6 26 Noroeste 35 Noroeste 0 989.2 -- 74
2020-11-16 09:00:00 12.6 26 Oeste 40 Oeste 0 988.7 -- 78
2020-11-16 08:00:00 11.9 24 Noroeste 40 Oeste 0 987.9 -- 83
2020-11-16 07:00:00 12.2 30 Oeste 40 Oeste 0.2 987.1 -- 80
2020-11-16 06:00:00 11.9 20 Noroeste 30 Oeste 0 986.9 -- 83
2020-11-16 05:00:00 11.9 13 Oeste 23 Oeste 0 986.8 -- 86
2020-11-16 04:00:00 12.1 17 Noroeste 22 Noroeste 0 986.7 -- 87
2020-11-16 03:00:00 12.1 12 Oeste 25 Noroeste 0 986.2 -- 92
2020-11-16 02:00:00 12.7 13 Noroeste 30 Noroeste 0.6 985.7 -- 92
2020-11-16 01:00:00 13.7 11 Noroeste 20 Noroeste 0 985 -- 93
2020-11-16 00:00:00 12.8 2 Este 9 Sudeste 0 984.9 -- 92
2020-11-15 23:00:00 12.7 6 Oeste 12 Norte 0 984.4 -- 93
2020-11-15 22:00:00 13.1 5 Oeste 12 Sudoeste 0 983.5 -- 90
2020-11-15 21:00:00 13.1 4 Sur 8 Sur 0 982.8 -- 88
2020-11-15 20:00:00 13 4 Oeste 6 Sudeste 0 982.5 -- 87
2020-11-15 19:00:00 13.1 3 Sudeste 11 Sudeste 0 982.3 -- 85
2020-11-15 18:00:00 13.8 4 Sur 13 Sudoeste 0 982.3 -- 83
2020-11-15 17:00:00 14.9 5 Sur 15 Sudoeste 0 982.1 -- 81
2020-11-15 16:00:00 16 6 Sudoeste 15 Sur 0 981.8 -- 77
2020-11-15 15:00:00 17.6 11 Sur 31 Este 0 981.7 -- 70
2020-11-15 14:00:00 17.8 24 Este 30 Este 0 981.6 -- 68
2020-11-15 13:00:00 17.5 19 Este 35 Este 0 982.3 -- 67
2020-11-15 12:00:00 16.7 26 Este 35 Este 0 982.7 -- 70
2020-11-15 11:00:00 13.3 23 Este 35 Este 0 983.4 -- 84
2020-11-15 10:00:00 12.3 22 Este 31 Este 0 983.7 -- 90
2020-11-15 09:00:00 8.8 6 Este 12 Nordeste 0 983.5 -- 100
2020-11-15 08:00:00 8.9 16 Sudeste 26 Sudeste 0 983.2 -- 100
2020-11-15 07:00:00 8.8 7 Sudeste 31 Este 0 983.3 -- 98
2020-11-15 06:00:00 10.1 20 Este 30 Este 0 983.4 -- 98
2020-11-15 05:00:00 9.5 16 Sudeste 28 Este 0 983 -- 100
2020-11-15 04:00:00 8.2 10 Este 19 Este 0 983.3 -- --
2020-11-15 03:00:00 7.2 2 Oeste 9 Sur 0 984 -- 100
2020-11-15 02:00:00 8 3 Sur 8 Sur 0 984.3 -- 100
2020-11-15 01:00:00 9.5 5 Sudeste 13 Sudoeste 0 984.6 -- 96
2020-11-15 00:00:00 10.9 8 Sur 16 Este 0 984.7 -- 100
2020-11-14 23:00:00 10.4 12 Este 16 Este 0 984.8 -- 99
2020-11-14 22:00:00 11.2 9 Sudeste 20 Este 0 984.9 -- 93
2020-11-14 21:00:00 10.4 3 Sudoeste 10 Sudeste 0 985.1 -- 93
2020-11-14 20:00:00 11.2 4 Oeste 9 Sudeste 0 985 -- 90
2020-11-14 19:00:00 12.5 8 Sudeste 13 Sur 0 984.4 -- 87
2020-11-14 18:00:00 13.1 6 Sudeste 13 Sudeste 0 984.1 -- 85
2020-11-14 17:00:00 13.6 9 Sur 15 Sur 0 984.2 -- 83
2020-11-14 16:00:00 14.2 10 Sur 16 Sur 0 984.5 -- 80
2020-11-14 15:00:00 14.7 8 Sudoeste 14 Sur 0 984.6 -- 79
2020-11-14 14:00:00 14.2 10 Sur 24 Este 0 985 -- 79
2020-11-14 13:00:00 14.1 14 Este 23 Sudeste 0 985.5 -- 78
2020-11-14 12:00:00 12.7 6 Sudeste 13 Sudeste 0 986.3 -- 86
2020-11-14 11:00:00 11.7 12 Este 22 Este 0 986.4 -- 89
2020-11-14 10:00:00 10.1 4 Sudoeste 14 Este 0 986.4 -- 100
2020-11-14 09:00:00 9.3 8 Este 16 Este 0 986.2 -- 100
2020-11-14 08:00:00 8.4 9 Este 19 Este 0 985.6 -- --
2020-11-14 07:00:00 7.5 11 Este 16 Este 0 985.7 -- --
2020-11-14 06:00:00 6.8 13 Este 20 Este 0 985.7 -- --
2020-11-14 05:00:00 7.6 8 Sur 14 Sur 0 985.4 -- 100
2020-11-14 04:00:00 8.3 8 Sudeste 10 Sudeste 0 985.7 -- 100
2020-11-14 03:00:00 8.3 5 Sur 18 Este 0 986.2 -- 100
2020-11-14 02:00:00 9 7 Sudeste 16 Este 0 986.5 -- 100
2020-11-14 01:00:00 9 12 Este 21 Sudeste 0 986.9 -- 100
2020-11-14 00:00:00 9.2 17 Este 22 Este 0 987 -- 100
2020-11-13 23:00:00 9.7 12 Este 20 Este 0 987 -- 96
2020-11-13 22:00:00 9.8 13 Este 19 Este 0 986.8 -- 93
2020-11-13 21:00:00 10 5 Este 7 Este 0 986.8 -- 92
2020-11-13 20:00:00 10.1 3 Sudeste 12 Sudeste 0 986.7 -- 91
2020-11-13 19:00:00 9.8 4 Oeste 10 Sudoeste 0 986.5 -- 91
2020-11-13 18:00:00 9.8 8 Sudoeste 13 Sudoeste 0 986 -- 88
2020-11-13 17:00:00 11.4 6 Sudoeste 11 Oeste 0 985.8 -- 81
2020-11-13 16:00:00 11.3 2 Noroeste 11 Este 0 985.8 -- 83
2020-11-13 15:00:00 11 6 Este 13 Nordeste 0 986 -- 84
2020-11-13 14:00:00 10.9 5 Sudoeste 11 Este 0 986.5 -- 86
2020-11-13 13:00:00 10.4 6 Sudeste 10 Sudeste 0 986.9 -- 89
2020-11-13 12:00:00 10 4 Sudeste 9 Este 0 987.8 -- 92
2020-11-13 11:00:00 9.5 5 Este 9 Este 0 987.7 -- 95
2020-11-13 10:00:00 9.3 7 Sudeste 13 Sudeste 0 987.7 -- 95
2020-11-13 09:00:00 9.1 6 Este 13 Este 0 987.5 -- 95
2020-11-13 08:00:00 9.1 6 Este 12 Nordeste 0 986.7 -- 96
2020-11-13 07:00:00 9 7 Nordeste 12 Este 0 986.4 -- 96
2020-11-13 06:00:00 9.2 9 Sudeste 12 Este 0 986.2 -- 95
2020-11-13 05:00:00 9.4 3 Este 8 Este 0 986.2 -- 95
2020-11-13 04:00:00 9.3 6 Este 13 Este 0 986.4 -- 97
2020-11-13 03:00:00 9.1 10 Este 17 Sudeste 0 986.6 -- 95
2020-11-13 02:00:00 9.3 12 Sudeste 21 Este 0 986.8 -- 95
2020-11-13 01:00:00 9.2 15 Sudeste 19 Este 0 987.3 -- 96
2020-11-13 00:00:00 9.3 13 Este 18 Este 0 987.5 -- 96
2020-11-12 23:00:00 9.5 12 Este 16 Este 0 987.3 -- 96
2020-11-12 22:00:00 9.7 6 Sudeste 15 Este 0 987.5 -- 94
2020-11-12 21:00:00 9.7 5 Sudeste 14 Sudeste 0 987.2 -- 95
2020-11-12 20:00:00 9.6 10 Sudeste 13 Sudeste 0 987.2 -- 98
2020-11-12 19:00:00 9.9 6 Sur 11 Sudoeste 0 987.1 -- 95
2020-11-12 18:00:00 10.1 2 Sur 10 Sudeste 0 986.7 -- 90
2020-11-12 17:00:00 11.1 8 Este 18 Este 0 986.9 -- 88
2020-11-12 16:00:00 11.3 11 Este 17 Este 0 986.9 -- 86
2020-11-12 15:00:00 11.5 4 Nordeste 10 Sur 0 987.2 -- 83
2020-11-12 14:00:00 10.8 3 Noroeste 9 Sudeste 0 987.8 -- 86
2020-11-12 13:00:00 9.7 8 Sudeste 12 Sudeste 0 988.4 -- 90
2020-11-12 12:00:00 9.3 6 Sudeste 10 Sur 0 989.1 -- 94
2020-11-12 11:00:00 8.7 3 Sur 9 Sur 0 989.4 -- 100
2020-11-12 10:00:00 8.7 5 Sudoeste 8 Sudoeste 0 989.4 -- 100
2020-11-12 09:00:00 8.9 3 Noroeste 6 Oeste 0 989.1 -- 100
2020-11-12 08:00:00 8.9 3 Este 9 Sur 0 988.5 -- 100
2020-11-12 07:00:00 9.1 5 Sudoeste 12 Sudoeste 0 988.2 -- 100
2020-11-12 06:00:00 9.4 7 Sudoeste 9 Sudoeste 0 988 -- 98
2020-11-12 05:00:00 9.6 4 Sudoeste 9 Sudoeste 0 988.2 -- 98
2020-11-12 04:00:00 9.6 6 Sudoeste 10 Sudoeste 0 988.5 -- 98
2020-11-12 03:00:00 9.7 8 Sudoeste 10 Sudoeste 0 988.8 -- 99
2020-11-12 02:00:00 9.9 4 Sudoeste 8 Oeste 0 988.9 -- 100
2020-11-12 01:00:00 9.9 4 Noroeste 10 Noroeste 0 989 -- 100
2020-11-12 00:00:00 10 6 Noroeste 8 Noroeste 0 989.2 -- 100
2020-11-11 23:00:00 10 2 Sudoeste 7 Oeste 0 988.7 -- 100
2020-11-11 22:00:00 10 4 Oeste 10 Oeste 0 988.5 -- 100
2020-11-11 21:00:00 10 3 Oeste 9 Noroeste 0 988.4 -- 98
2020-11-11 20:00:00 10.3 5 Noroeste 11 Oeste 0 988.5 -- 94
2020-11-11 19:00:00 10.5 9 Oeste 16 Oeste 0 988.3 -- 91
2020-11-11 18:00:00 10.9 8 Oeste 16 Sudoeste 0 987.8 -- 88
2020-11-11 17:00:00 12.2 12 Sudoeste 21 Sudoeste 0 987.6 -- 84
2020-11-11 16:00:00 13.8 13 Sudoeste 22 Sudoeste 0 987.1 -- 79
2020-11-11 15:00:00 16.2 15 Sudeste 27 Este 0 987.2 -- 69
2020-11-11 14:00:00 14.1 6 Sur 15 Sur 0 987.8 -- 100
2020-11-11 13:00:00 11.3 2 Oeste 11 Sur 0 988.9 -- --
2020-11-11 12:00:00 9.1 6 Sur 14 Sudeste 0 989.9 -- --
2020-11-11 11:00:00 8.2 11 Sudeste 19 Sudeste 0 990.2 -- --
2020-11-11 10:00:00 7.9 6 Sur 17 Sudeste 0 990.5 -- --
2020-11-11 09:00:00 8.2 6 Sur 14 Sudeste 0 990.9 -- --
2020-11-11 08:00:00 7.9 13 Este 17 Este 0 990.8 -- --
2020-11-11 07:00:00 7.6 11 Este 19 Este 0 990.7 -- --
2020-11-11 06:00:00 7.6 13 Este 22 Este 0 990.7 -- --
2020-11-11 05:00:00 7.8 17 Este 23 Este 0 990.8 -- 100
2020-11-11 04:00:00 7.5 13 Este 23 Este 0 991.1 -- 100
2020-11-11 03:00:00 6.8 16 Este 24 Este 0 991.6 -- 100
2020-11-11 02:00:00 6.4 4 Nordeste 10 Este 0 992 -- 98
2020-11-11 01:00:00 6.6 5 Sudeste 8 Este 0 991.9 -- 91
2020-11-11 00:00:00 7.7 4 Este 6 Este 0 992.1 -- 95
2020-11-10 23:00:00 8.2 3 Sur 6 Oeste 0 992 -- 89
2020-11-10 22:00:00 9.8 3 Oeste 5 Sudoeste 0 991.6 -- 85
2020-11-10 21:00:00 10.9 3 Sudoeste 8 Sur 0 990.9 -- 80
2020-11-10 20:00:00 12.2 4 Sudoeste 9 Sudoeste 0 991 -- 76
2020-11-10 19:00:00 13.6 7 Oeste 16 Noroeste 0 990.8 -- 72
2020-11-10 18:00:00 15.1 14 Noroeste 22 Noroeste 0 990.5 -- 66
2020-11-10 17:00:00 17.6 18 Oeste 30 Oeste 0 990.2 -- 57
2020-11-10 16:00:00 18.7 21 Oeste 34 Noroeste 0 990.2 -- 53
2020-11-10 15:00:00 18.7 26 Oeste 38 Oeste 0 990.2 -- 54
2020-11-10 14:00:00 18.6 21 Noroeste 36 Noroeste 0 990.6 -- 56
2020-11-10 13:00:00 17.7 26 Noroeste 37 Oeste 0 991.1 -- 59
2020-11-10 12:00:00 16.3 24 Noroeste 32 Noroeste 0 991.3 -- 65
2020-11-10 11:00:00 14.9 15 Oeste 21 Oeste 0 991.5 -- 70
2020-11-10 10:00:00 12.2 7 Sur 11 Sur 0 991.6 -- 86
2020-11-10 09:00:00 8.8 6 Sudeste 12 Sudeste 0 991.4 -- 98
2020-11-10 08:00:00 6.1 8 Sudeste 10 Sudeste 0 990.5 -- 100
2020-11-10 07:00:00 6.6 2 Sudeste 8 Nordeste 0 989.9 -- 100
2020-11-10 06:00:00 7.1 6 Sur 14 Sudoeste 0 989.7 -- 100
2020-11-10 05:00:00 7.2 10 Sudoeste 13 Sudoeste 0 989.4 -- 100
2020-11-10 04:00:00 7 5 Sudoeste 10 Sudoeste 0.2 989.4 -- 100
2020-11-10 03:00:00 7.7 6 Sudoeste 13 Sudoeste 0 989.5 -- 100
2020-11-10 02:00:00 7.9 5 Oeste 11 Sudoeste 0 989.4 -- 100
2020-11-10 01:00:00 8.9 5 Sudoeste 8 Sudoeste 0 989.5 -- 99
2020-11-10 00:00:00 9.1 5 Sudoeste 6 Sudoeste 0 989.4 -- 95
2020-11-09 23:00:00 9.7 3 Sudoeste 4 Noroeste 0 989.1 -- 92
2020-11-09 22:00:00 10.4 5 Norte 8 Noroeste 0 988.9 -- 91
2020-11-09 21:00:00 10.3 5 Noroeste 9 Noroeste 0 988.6 -- 91
2020-11-09 20:00:00 11.5 4 Sur 8 Sur 0 988.2 -- 86
2020-11-09 19:00:00 12.8 5 Sudoeste 10 Sudoeste 0 987.9 -- 83
2020-11-09 18:00:00 14.3 9 Sudoeste 15 Sudoeste 0 987.2 -- 78
2020-11-09 17:00:00 17.3 5 Oeste 8 Oeste 0 986.8 -- 65
2020-11-09 16:00:00 17.5 5 Oeste 10 Oeste 0 986.6 -- 62
2020-11-09 15:00:00 17 5 Oeste 10 Oeste 0 986.5 -- 64
2020-11-09 14:00:00 15.7 3 Oeste 12 Noroeste -- 986.7 -- 70
2020-11-09 13:00:00 13.5 7 Oeste 11 Oeste 0 987.3 -- 81
2020-11-09 12:00:00 12.6 6 Sur 12 Sudoeste 0 987.7 -- 83
2020-11-09 11:00:00 11.9 3 Sur 15 Este 0 987.5 -- 84
2020-11-09 10:00:00 11 10 Sudeste 22 Este 0 987.1 -- 85
2020-11-09 09:00:00 9.7 9 Este 14 Este 0 986.9 -- 94
2020-11-09 08:00:00 9.1 9 Este 13 Este 0 986.3 -- 94
2020-11-09 07:00:00 9.7 9 Sudeste 22 Sudeste 0 985.7 -- 91
2020-11-09 06:00:00 9.5 15 Este 26 Este 0 985.3 -- 93
2020-11-09 05:00:00 9.1 22 Este 31 Este 0 984.9 -- 92
2020-11-09 04:00:00 9.4 17 Este 24 Este 0 985.4 -- 95
2020-11-09 03:00:00 9.8 15 Este 28 Este 0 985.7 -- 95
2020-11-09 02:00:00 10.1 23 Este 28 Este 0 985.4 -- 95
2020-11-09 01:00:00 10.5 16 Este 26 Este 0 985.8 -- 92
2020-11-09 00:00:00 10.5 19 Este 24 Este 0 985.9 -- 93
2020-11-08 23:00:00 10.4 11 Este 19 Este 0 986.3 -- 90
2020-11-08 22:00:00 10.8 5 Nordeste 18 Este 0 986.4 -- 88
2020-11-08 21:00:00 11.4 9 Este 16 Este 0 986.2 -- 86
2020-11-08 20:00:00 12.5 8 Este 17 Sudeste 0 986.3 -- 83
2020-11-08 19:00:00 12.9 10 Sudeste 22 Este 0 985.8 -- 83
2020-11-08 18:00:00 14.8 16 Este 33 Este 0 985.4 -- 74
2020-11-08 17:00:00 16.9 20 Este 36 Este 0.2 985.2 -- 65
2020-11-08 16:00:00 17.2 26 Este 35 Este 0.4 985.3 -- 64
2020-11-08 15:00:00 17.2 22 Este 32 Este 0.8 985.4 -- 64
2020-11-08 14:00:00 17.1 23 Este 31 Este 0.6 986 -- 62
2020-11-08 13:00:00 16.2 20 Este 28 Este 0.8 986.8 -- 64
2020-11-08 12:00:00 15.7 18 Este 30 Este 0.6 987.5 -- 75
2020-11-08 11:00:00 13.6 21 Este 31 Este 0.4 987.7 -- 86
2020-11-08 10:00:00 11.7 21 Este 28 Este 0.8 987.8 -- 96
2020-11-08 09:00:00 10.9 8 Este 17 Este 0.8 987.9 -- 100
2020-11-08 08:00:00 11 10 Este 23 Este 0.8 987.7 -- 100
2020-11-08 07:00:00 11.3 10 Este 27 Este 1 987.4 -- 100
2020-11-08 06:00:00 11.4 19 Este 28 Este 1 987.5 -- 100
2020-11-08 05:00:00 11.3 18 Este 29 Este 0.8 987.2 -- 100
2020-11-08 04:00:00 11.2 18 Este 27 Este 0.4 987.1 -- 99
2020-11-08 03:00:00 11.4 19 Este 30 Este 0.4 987.3 -- 96
2020-11-08 02:00:00 11.8 15 Este 30 Este 0.6 987.3 -- 94
2020-11-08 01:00:00 11.8 21 Este 28 Este 2.4 987 -- 95
2020-11-08 00:00:00 12.3 18 Este 28 Este 1.6 986.8 -- 93
2020-11-07 23:00:00 12.6 18 Este 24 Este 0.6 986.5 -- 91
2020-11-07 22:00:00 13.8 17 Este 26 Este 0.2 985.9 -- 81
2020-11-07 21:00:00 14.9 4 Sur 12 Oeste 0 985.5 -- 73
2020-11-07 20:00:00 14.1 7 Sur 14 Sudeste 0.2 984.9 -- 77
2020-11-07 19:00:00 14 11 Este 18 Este 0.2 984.3 -- 88
2020-11-07 18:00:00 15.1 11 Sudeste 27 Sur 0.2 983.2 -- 81
2020-11-07 17:00:00 15.4 18 Este 30 Este 0 982.8 -- 90
2020-11-07 16:00:00 15.8 20 Este 28 Este 0 982.6 -- 87
2020-11-07 15:00:00 15.4 21 Este 29 Este 0.2 982 -- 86
2020-11-07 14:00:00 15.3 21 Este 28 Este 0 982.1 -- 85
2020-11-07 13:00:00 14.5 21 Este 32 Este 0 981.8 -- 91
2020-11-07 12:00:00 14.1 22 Sudeste 32 Sudeste 0 982 -- 94
2020-11-07 11:00:00 13.3 20 Sudeste 30 Este 0 981.5 -- 98
2020-11-07 10:00:00 13.2 19 Este 37 Este 0.2 980.9 -- 99
2020-11-07 09:00:00 13.3 8 Este 24 Este 0 980.8 -- 95
2020-11-07 08:00:00 13 19 Este 40 Sudeste 0 980.8 -- 93
2020-11-07 07:00:00 12.9 36 Sudeste 65 Este 0 980.3 -- 90
2020-11-07 06:00:00 16.4 42 Este 60 Este 0 978 -- 74
2020-11-07 05:00:00 16.7 41 Este 57 Este 0 980.2 -- 75
2020-11-07 04:00:00 16.6 24 Este 49 Este 0 981.3 -- 77
2020-11-07 03:00:00 17 34 Este 57 Este 0 981.5 -- 72
2020-11-07 02:00:00 16.9 35 Este 57 Este 0 982 -- 72
2020-11-07 01:00:00 16.8 42 Este 67 Este 0 982.3 -- 72
2020-11-07 00:00:00 16.8 37 Este 61 Este 0 982.9 -- 73
2020-11-06 23:00:00 17 51 Este 69 Este 0 982.8 -- 72
2020-11-06 22:00:00 17.1 46 Este 72 Este 0 982.6 -- 71
2020-11-06 21:00:00 17.1 50 Este 75 Este 0 982.3 -- 71
2020-11-06 20:00:00 17.3 51 Este 77 Este 0 982.4 -- 70
2020-11-06 19:00:00 17.2 45 Este 67 Este 0 983.3 -- 70
2020-11-06 18:00:00 17.1 42 Este 70 Este 0 982.9 -- 71
2020-11-06 17:00:00 17.6 43 Este 65 Este 0 983.2 -- 71
2020-11-06 16:00:00 17.9 36 Este 62 Este 0 984.2 -- 70
2020-11-06 15:00:00 17.7 37 Este 60 Este 0 984.9 -- 71
2020-11-06 14:00:00 18.1 43 Este 60 Este 0 985.4 -- 69
2020-11-06 13:00:00 17.6 39 Este 55 Este 0 986.2 -- 71
2020-11-06 12:00:00 17.3 34 Este 52 Sudeste 0 987.4 -- 72
2020-11-06 11:00:00 16.5 33 Este 52 Este 0 987.6 -0.3 74
2020-11-06 10:00:00 15.6 26 Este 42 Este 0 987.9 -- 79
2020-11-06 09:00:00 14.8 26 Este 42 Este 0 988.2 -- 82
2020-11-06 08:00:00 14.2 21 Sudeste 34 Sudeste 0 987.9 -- 86
2020-11-06 07:00:00 14.2 9 Sudeste 31 Sudeste 0 988 -- 85
2020-11-06 06:00:00 14.3 24 Este 38 Este 0 987.5 -- 84
2020-11-06 05:00:00 13.7 14 Sudeste 24 Sudeste 0 987.4 -- 89
2020-11-06 04:00:00 13.6 15 Sudeste 20 Sudeste 0 987.5 -- 88
2020-11-06 03:00:00 13.4 10 Sudeste 18 Este 0 987.9 -- 89
2020-11-06 02:00:00 13.4 12 Este 28 Sudeste 0 987.9 -- 88
2020-11-06 01:00:00 13.2 16 Sudeste 22 Sudeste 0 988 -- 90
2020-11-06 00:00:00 11.8 8 Sudeste 13 Sur 0 987.8 -- 97
2020-11-05 23:00:00 11.7 10 Sur 16 Sur 0 988.7 -- 94
2020-11-05 22:00:00 11.5 0 Calma 6 Nordeste 0 988.5 -- 91
2020-11-05 21:00:00 11.6 2 Noroeste 8 Sudoeste 0 988.7 -- 89
2020-11-05 20:00:00 11.6 4 Norte 8 Noroeste 0 988.8 -- 86
2020-11-05 19:00:00 11.4 6 Noroeste 6 Norte 0 989 -- 86
2020-11-05 18:00:00 11.9 6 Sudoeste 15 Sudoeste 0 988.9 -- 83
2020-11-05 17:00:00 14.2 9 Sudeste 21 Este 0 988.8 -- 74
2020-11-05 16:00:00 14.8 14 Sudeste 23 Este 0 989.1 -- 71
2020-11-05 15:00:00 14 19 Este 27 Este 0 989.3 -- 73
2020-11-05 14:00:00 13.5 16 Este 23 Este 0 990.3 -- 73
2020-11-05 13:00:00 12.3 8 Sudeste 19 Este 0 991.1 -- 79
2020-11-05 12:00:00 11.8 9 Sudeste 15 Sudeste 0 991.7 -- 81
2020-11-05 11:00:00 9.6 9 Este 11 Este 0 992.3 -- 92
2020-11-05 10:00:00 10 3 Sudeste 6 Norte 0 992.2 -- 89
2020-11-05 09:00:00 8.7 4 Norte 6 Nordeste 0 991.5 -- 94
2020-11-05 08:00:00 8.6 0 Calma 5 Sudoeste 0 991 -- 97
2020-11-05 07:00:00 8.6 3 Sur 8 Sur 0 990.9 -- 98
2020-11-05 06:00:00 8.7 2 Nordeste 6 Sudeste 0 990.8 -- 97
2020-11-05 05:00:00 8.7 2 Sur 5 Sudeste 0 990.8 -- 97
2020-11-05 04:00:00 8.7 3 Sudoeste 8 Sur 0 991.3 -- 98
2020-11-05 03:00:00 8.8 6 Sudoeste 9 Sudoeste 0 991.4 -- 96
2020-11-05 02:00:00 8.7 5 Oeste 7 Oeste 0 990.9 -- 95
2020-11-05 01:00:00 8.8 4 Norte 6 Noroeste 0 990.9 -- 96
2020-11-05 00:00:00 9 4 Sudoeste 5 Sudoeste 0 991.2 -- 97
2020-11-04 23:00:00 9.1 3 Sudoeste 5 Sudoeste 0 991 -- 93
2020-11-04 22:00:00 9 6 Sudoeste 8 Sudoeste 0 990.6 -- 93
2020-11-04 21:00:00 9 6 Oeste 12 Noroeste 0 989.8 -- 93
2020-11-04 20:00:00 9.3 6 Oeste 6 Noroeste 0 989.3 -- 91
2020-11-04 19:00:00 9.4 4 Noroeste 6 Norte 0 988.9 -- 90
2020-11-04 18:00:00 9.5 2 Nordeste 7 Nordeste 0 988.3 -- 87
2020-11-04 17:00:00 9.5 5 Norte 10 Este 0 988.3 -- 88
2020-11-04 16:00:00 9.8 9 Este 13 Este 0 988 -- 85
2020-11-04 15:00:00 10.6 10 Nordeste 17 Nordeste 0 987.7 -- 74
2020-11-04 14:00:00 11.1 6 Nordeste 13 Norte 0 988 -- 58
2020-11-04 13:00:00 11.2 4 Norte 11 Norte 0 988.5 -- 56
2020-11-04 12:00:00 10.9 6 Noroeste 18 Noroeste 0 988.7 -- 58
2020-11-04 11:00:00 10 16 Noroeste 29 Noroeste 0 988.8 0.9 63
2020-11-04 10:00:00 9.1 18 Oeste 27 Oeste 0 988.6 -- 65
2020-11-04 09:00:00 8.1 23 Noroeste 35 Oeste 0 988.3 -- 69
2020-11-04 08:00:00 7.8 25 Oeste 39 Oeste 0 987.9 -- 70
2020-11-04 07:00:00 8.1 27 Oeste 40 Oeste 0 988.3 -- 71
2020-11-04 06:00:00 8.4 27 Oeste 38 Oeste 0 988.6 -- 71
2020-11-04 05:00:00 8.4 27 Oeste 45 Oeste 0 989.1 -- 70
2020-11-04 04:00:00 8.2 27 Oeste 41 Oeste 0 989.5 -- 71
2020-11-04 03:00:00 8.4 26 Oeste 39 Oeste 0 990.2 -- 71
2020-11-04 02:00:00 8.7 29 Oeste 42 Noroeste 0 990.6 -- 71
2020-11-04 01:00:00 9.1 31 Oeste 44 Noroeste 0 991.4 -- 71
2020-11-04 00:00:00 9.3 30 Oeste 41 Oeste 0 992.1 -- 71
2020-11-03 23:00:00 9.5 26 Noroeste 40 Noroeste 0 992.5 -- 73
2020-11-03 22:00:00 10.2 32 Noroeste 46 Noroeste 0 992.8 -- 71
2020-11-03 21:00:00 10.5 34 Noroeste 55 Oeste 0 993.1 -- 73
2020-11-03 20:00:00 11 33 Noroeste 49 Noroeste 0 993.3 -- 72
2020-11-03 19:00:00 11.4 31 Noroeste 48 Noroeste 0 993.2 -- 72
2020-11-03 18:00:00 12.4 28 Noroeste 52 Noroeste 0 992.6 -- 71
2020-11-03 17:00:00 13.4 35 Noroeste 48 Noroeste 0 992.4 -- 68
2020-11-03 16:00:00 14.6 32 Noroeste 46 Noroeste 0 992.1 -- 62
2020-11-03 15:00:00 14.4 33 Noroeste 48 Noroeste 0 992.4 -- 63
2020-11-03 14:00:00 13.6 30 Noroeste 48 Noroeste 0 992.6 -- 66
2020-11-03 13:00:00 12.8 31 Noroeste 44 Noroeste 0 993.3 -- 69
2020-11-03 12:00:00 12.4 28 Noroeste 45 Noroeste 0 993.2 -- 75
2020-11-03 11:00:00 12 28 Noroeste 39 Noroeste 0 993 -- 83
2020-11-03 10:00:00 11.7 26 Oeste 42 Noroeste 0 992.4 -- 87
2020-11-03 09:00:00 11.7 29 Oeste 45 Oeste 0 991.6 -- 87
2020-11-03 08:00:00 12.8 30 Noroeste 44 Noroeste 0 990.4 -- 77
2020-11-03 07:00:00 12.8 29 Noroeste 46 Noroeste 0 989.7 -- 78
2020-11-03 06:00:00 13.8 31 Noroeste 49 Noroeste 0 989.5 -- 71
2020-11-03 05:00:00 13.8 30 Oeste 39 Oeste 0 989 -- 73
2020-11-03 04:00:00 13.6 20 Oeste 26 Oeste 0 988.8 -- 75
2020-11-03 03:00:00 13.8 13 Oeste 22 Oeste 0 988.7 -- 75
2020-11-03 02:00:00 13.8 12 Noroeste 20 Noroeste 0 988.4 -- 75
2020-11-03 01:00:00 14.1 14 Oeste 19 Noroeste 0 988.3 -- 74
2020-11-03 00:00:00 14.8 13 Noroeste 22 Noroeste 0 988.2 -- 72
2020-11-02 23:00:00 15.4 12 Noroeste 22 Noroeste 0 988.1 -- 70
2020-11-02 22:00:00 16.2 15 Noroeste 22 Noroeste 0 988.1 -- 71
2020-11-02 21:00:00 16.7 13 Oeste 22 Noroeste 0 987.9 -- 73
2020-11-02 20:00:00 18.4 18 Oeste 27 Oeste 0 987.1 -- 62
2020-11-02 19:00:00 18.5 3 Noroeste 15 Oeste 0 986.7 -- 59
2020-11-02 18:00:00 20.2 13 Oeste 19 Oeste 0 986.2 -- 54
2020-11-02 17:00:00 22.3 12 Noroeste 24 Noroeste 0 985.9 -- 46
2020-11-02 16:00:00 22.3 17 Noroeste 26 Noroeste 0 985.9 -- 47
2020-11-02 15:00:00 23.5 15 Noroeste 23 Noroeste 0 985.9 -- 43
2020-11-02 14:00:00 22.9 9 Oeste 15 Noroeste 0 986.4 -- 44
2020-11-02 13:00:00 22.2 4 Oeste 11 Oeste 0 987 -- 46
2020-11-02 12:00:00 20.8 4 Sudoeste 11 Sur 0 987.5 -- 49
2020-11-02 11:00:00 18.7 4 Sudoeste 9 Sur 0 987.5 -- 57
2020-11-02 10:00:00 15.4 4 Oeste 7 Oeste 0 987.5 -- 68
2020-11-02 09:00:00 12 3 Sudeste 7 Nordeste 0 987.2 -- 82
2020-11-02 08:00:00 10.4 4 Sudoeste 8 Sudeste 0 986.7 -- 86
2020-11-02 07:00:00 9.5 6 Sudeste 9 Sudeste 0 986.4 -- 85
2020-11-02 06:00:00 10.7 3 Sudoeste 14 Este 0 986.4 -- 82
2020-11-02 05:00:00 11.5 5 Nordeste 12 Este 0 986.2 -- 77
2020-11-02 04:00:00 12.3 9 Este 14 Este 0 986.3 -- 80
2020-11-02 03:00:00 13 7 Este 21 Este 0 986.5 -- 77
2020-11-02 02:00:00 13 19 Este 24 Este 0 986.5 -- 78
2020-11-02 01:00:00 12.7 6 Este 21 Este 0 986.9 -- 78
2020-11-02 00:00:00 11.3 3 Nordeste 8 Noroeste 0 987.2 -- 75
2020-11-01 23:00:00 11.7 4 Noroeste 6 Noroeste 0 987.3 -- 72
2020-11-01 22:00:00 13 2 Oeste 6 Noroeste 0 987 -- 67
2020-11-01 21:00:00 14.3 4 Norte 5 Norte 0 986.9 -- 64
2020-11-01 20:00:00 16.8 0 Calma 8 Sur 0 986.9 -- 59
2020-11-01 19:00:00 18.3 5 Sur 9 Sudoeste 0 986.7 -- 54
2020-11-01 18:00:00 21.4 4 Sudoeste 6 Noroeste 0 986.4 -- 42
2020-11-01 17:00:00 23.5 4 Oeste 9 Norte 0 986.4 -- 35
2020-11-01 16:00:00 24.1 4 Norte 9 Nordeste 0 986.7 -- 34
2020-11-01 15:00:00 24 4 Norte 9 Nordeste 0 987.2 -- 36
2020-11-01 14:00:00 22.8 4 Nordeste 9 Norte 0 987.8 -- 43
2020-11-01 13:00:00 21.5 5 Noroeste 12 Oeste 0 988.6 -- 48
2020-11-01 12:00:00 18.4 5 Oeste 8 Oeste 0 989.5 -- 55
2020-11-01 11:00:00 15.9 3 Oeste 8 Oeste 0 989.9 -- 60
2020-11-01 10:00:00 12 3 Sur 5 Sur 0 990 -- 73
2020-11-01 09:00:00 7.6 2 Este 5 Noroeste 0 989.8 -- 84
2020-11-01 08:00:00 5.1 2 Noroeste 7 Sudeste 0 989.4 -- 88
2020-11-01 07:00:00 6 0 Calma 7 Noroeste 0 989.1 -- 88
2020-11-01 06:00:00 5.8 3 Oeste 8 Este 0 988.6 -- 86
2020-11-01 05:00:00 6.3 4 Nordeste 8 Noroeste 0 988.7 -- 88
2020-11-01 04:00:00 6.4 5 Noroeste 8 Noroeste 0 988.8 -- 85
2020-11-01 03:00:00 7.1 3 Norte 5 Oeste 0 989.2 -- 85
2020-11-01 02:00:00 7.6 3 Sudeste 12 Sudeste 0 989.3 -- 82
2020-11-01 01:00:00 8.7 4 Sudoeste 14 Oeste 0 989.3 -- 83
2020-11-01 00:00:00 9.2 0 Calma 6 Noroeste 0 989 -- 79
2020-10-31 23:00:00 9.7 0 Calma 5 Norte 0 988.7 -- 74
2020-10-31 22:00:00 10.7 0 Calma 6 Noroeste 0 988.5 -- 75
2020-10-31 21:00:00 12.1 4 Noroeste 6 Noroeste 0 988.6 -- 69
2020-10-31 20:00:00 14 2 Sudoeste 4 Sudoeste 0 988.4 -- 61
2020-10-31 19:00:00 16.1 4 Sur 14 Sudoeste 0 988.2 -- 61
2020-10-31 18:00:00 18.1 10 Sudoeste 16 Oeste 0 987.8 -- 54
2020-10-31 17:00:00 21.7 4 Oeste 30 Noroeste 0 987.8 -- 42
2020-10-31 16:00:00 21.7 15 Oeste 23 Oeste 0 988 -- 42
2020-10-31 15:00:00 21.8 8 Noroeste 17 Oeste 0 988 -- 42
2020-10-31 14:00:00 19.8 6 Sur 12 Oeste 0 988.3 -- 48
2020-10-31 13:00:00 18 4 Sudoeste 14 Sudoeste 0 989.6 -- 54
2020-10-31 12:00:00 15.4 4 Sudoeste 8 Sudoeste 0 990.5 -- 61
2020-10-31 11:00:00 12.5 3 Sudoeste 9 Oeste 0 991.2 -- 72
2020-10-31 10:00:00 8.6 3 Oeste 8 Sudeste 0 991.2 -- 87
2020-10-31 09:00:00 4.8 5 Sudeste 7 Sudeste 0 991 -- 95
2020-10-31 08:00:00 3.4 2 Sur 10 Noroeste 0 990.6 -- 93
2020-10-31 07:00:00 3.4 0 Calma 8 Nordeste 0 990.3 -- 90
2020-10-31 06:00:00 4.1 6 Norte 9 Noroeste 0 990.1 -- 92
2020-10-31 05:00:00 4.3 3 Sur 6 Nordeste 0 989.8 -- 90
2020-10-31 04:00:00 5.4 2 Sur 5 Sudeste 0 989.9 -- 90
2020-10-31 03:00:00 5.6 6 Sudeste 9 Oeste 0 990.1 -- 89
2020-10-31 02:00:00 6.4 8 Oeste 9 Noroeste 0 990.3 -- 85
2020-10-31 01:00:00 7.1 5 Norte 8 Noroeste 0 990.3 -- 85
2020-10-31 00:00:00 7.7 5 Noroeste 8 Oeste 0 990.4 -- 85
2020-10-30 23:00:00 8.8 3 Norte 5 Sudeste 0 990.5 -- 79
2020-10-30 22:00:00 10 5 Sur 7 Sur 0 990.5 -- 77
2020-10-30 21:00:00 11.4 3 Sudeste 7 Noroeste 0 990.1 -- 72
2020-10-30 20:00:00 12.8 0 Calma 6 Norte 0 990 -- 67
2020-10-30 19:00:00 15.7 0 Calma 12 Sudoeste 0 989.8 -- 59
2020-10-30 18:00:00 17.8 11 Sudoeste 12 Sudoeste 0 989.3 -- 54
2020-10-30 17:00:00 21.3 4 Oeste 9 Oeste 0 989 -- 44
2020-10-30 16:00:00 21.4 6 Sur 12 Sudoeste 0 989.1 -- 44
2020-10-30 15:00:00 20.8 7 Sur 17 Sur 0 989.5 -- 46
2020-10-30 14:00:00 19.8 3 Sur 13 Sur 0 990.1 -- 50
2020-10-30 13:00:00 17.8 5 Sudoeste 9 Oeste 0 990.9 -- 56
2020-10-30 12:00:00 15.7 2 Sudeste 5 Sudoeste 0 991.7 -- 64
2020-10-30 11:00:00 11.6 0 Calma 3 Sudoeste 0 992.1 -- 82
2020-10-30 10:00:00 7 0 Calma 3 Sur 0 992.4 -- 97
2020-10-30 09:00:00 4.9 0 Calma 3 Nordeste 0 992.2 -- 100
2020-10-30 08:00:00 3.8 2 Sudeste 3 Sur 0 991.8 -- 99
2020-10-30 07:00:00 3.5 0 Calma 4 Sur 0 991.6 -- 98
2020-10-30 06:00:00 4.7 3 Este 5 Nordeste 0 991.5 -- 96
2020-10-30 05:00:00 5.3 0 Calma 5 Sudeste 0 991.3 -- 91
2020-10-30 04:00:00 5.7 3 Este 6 Sudeste 0 991.3 -- 90
2020-10-30 03:00:00 7.2 4 Sur 9 Oeste 0 991.1 -- 85
2020-10-30 02:00:00 7.5 5 Noroeste 9 Noroeste 0 991 -- 87
2020-10-30 01:00:00 8.2 6 Noroeste 8 Noroeste 0 991.2 -- 84
2020-10-30 00:00:00 8.5 6 Noroeste 8 Noroeste 0 991.3 -- 82
2020-10-29 23:00:00 9.2 4 Noroeste 6 Noroeste 0 991.1 -- 78
2020-10-29 22:00:00 10.5 2 Sur 7 Sudeste 0 991 -- 76
2020-10-29 21:00:00 11.4 3 Noroeste 10 Norte 0 990.6 -- 71
2020-10-29 20:00:00 13 2 Noroeste 12 Este 0 990.4 -- 69
2020-10-29 19:00:00 15.5 11 Este 15 Este 0 989.9 -- 61
2020-10-29 18:00:00 18.3 12 Este 14 Este 0 989.4 -- 51
2020-10-29 17:00:00 21.2 3 Noroeste 7 Oeste 0 989.3 -- 38
2020-10-29 16:00:00 21.4 3 Oeste 8 Noroeste 0 989.5 -- 40
2020-10-29 15:00:00 20.8 4 Sudeste 11 Nordeste 0 989.8 -- 43
2020-10-29 14:00:00 20 5 Oeste 10 Oeste 0 990.3 -- 47
2020-10-29 13:00:00 19.3 4 Sur 8 Sudoeste 0 991.1 -- 48
2020-10-29 12:00:00 17.3 3 Oeste 9 Sudoeste 0 992 -- 55
2020-10-29 11:00:00 15.2 4 Sudoeste 8 Noroeste 0 992 -- 62
2020-10-29 10:00:00 12.7 2 Nordeste 8 Norte 0 992.3 -- 75
2020-10-29 09:00:00 7.6 5 Norte -- -- 0 991.9 -- 90
2020-10-29 08:00:00 5.6 3 Este 5 Norte 0 990.8 -- 97
2020-10-29 07:00:00 5.1 0 Calma 5 Norte 0 991 -- 92
2020-10-29 06:00:00 6.3 3 Sur 4 Sudoeste 0 990.8 -- 91
2020-10-29 05:00:00 7.4 2 Nordeste 5 Nordeste 0 990.1 -- 93
2020-10-29 04:00:00 7.6 3 Sur 6 Sudeste 0 990.1 -- 91
2020-10-29 03:00:00 8.6 4 Sur 5 Sudeste 0 990.2 -- 89
2020-10-29 02:00:00 9 3 Oeste 7 Norte 0 990.1 -- 87
2020-10-29 01:00:00 9.7 0 Calma 4 Sur 0 989.7 -- 82
2020-10-29 00:00:00 10.1 3 Sudoeste 7 Oeste 0 989.5 -- 81
2020-10-28 23:00:00 10.7 4 Oeste 10 Sudoeste 0 989.2 -- 77
2020-10-28 22:00:00 11.9 5 Oeste 8 Oeste 0 988.5 -- 75
2020-10-28 21:00:00 13.2 4 Noroeste 10 Norte 0 987.8 -- 71
2020-10-28 20:00:00 13.6 3 Noroeste 6 Noroeste 0 987.5 -- 65
2020-10-28 19:00:00 15.6 6 Noroeste 13 Noroeste 0 986.7 -- 61
2020-10-28 18:00:00 18.1 10 Noroeste 14 Noroeste 0 985.7 -- 53
2020-10-28 17:00:00 20.5 7 Norte 17 Nordeste 0 985.5 -- 45
2020-10-28 16:00:00 20.6 10 Norte 17 Norte 0 985.2 -- 45
2020-10-28 15:00:00 21 2 Sudoeste 10 Nordeste 0 985.2 -- 46
2020-10-28 14:00:00 19.7 3 Este 10 Noroeste 0 985.5 -- 50
2020-10-28 13:00:00 18 4 Nordeste 9 Este 0 986.1 -- 53
2020-10-28 12:00:00 15.4 4 Norte 12 Norte 0 986.8 -- 59
2020-10-28 11:00:00 12.5 4 Noroeste 7 Oeste 0 986.5 -- 70
2020-10-28 10:00:00 9.7 0 Calma 7 Noroeste 0 986 -- 84
2020-10-28 09:00:00 7.1 0 Calma 8 Norte 0 985.1 -- 89
2020-10-28 08:00:00 6.1 6 Sur 9 Sudeste 0 984.3 -- 90
2020-10-28 07:00:00 6.7 6 Norte 8 Norte 0 983.7 -- 89
2020-10-28 06:00:00 6.5 4 Sudoeste 8 Sudeste 0 983.6 -- 88
2020-10-28 05:00:00 6.6 4 Este 14 Este 0 983.4 -- 88
2020-10-28 04:00:00 6.9 4 Sur 10 Sudeste 0 983.1 -- 85
2020-10-28 03:00:00 8.3 4 Sur 9 Sudoeste 0 983.3 -- 83
2020-10-28 02:00:00 8.3 4 Noroeste 8 Norte 0 983 -- 80
2020-10-28 01:00:00 8.8 0 Calma 11 Norte 0 983.1 -- 80
2020-10-28 00:00:00 10 2 Norte 8 Noroeste 0 983.2 -- 75
2020-10-27 23:00:00 11.8 5 Este 9 Este 0 983.3 -- 69
2020-10-27 22:00:00 11.7 8 Este 13 Nordeste 0 982.9 -- 69
2020-10-27 21:00:00 10.7 9 Nordeste 14 Sur 0 982.6 -- 70
2020-10-27 20:00:00 11.7 10 Sudeste 12 Sudeste 0 982.3 -- 65
2020-10-27 19:00:00 13.9 7 Nordeste 14 Nordeste 0 981.8 -- 55
2020-10-27 18:00:00 15.2 9 Nordeste 15 Nordeste 0 981.3 -- 51
2020-10-27 17:00:00 16.5 6 Noroeste 11 Norte 0 981.2 -- 47
2020-10-27 16:00:00 17 5 Nordeste 15 Nordeste 0 981 -- 46
2020-10-27 15:00:00 17.5 5 Nordeste 14 Nordeste 0 981.3 -- 44
2020-10-27 14:00:00 15.5 6 Nordeste 15 Nordeste 0 981.7 -- 50
2020-10-27 13:00:00 15 5 Noroeste 12 Nordeste 0 982.4 -- 51
2020-10-27 12:00:00 13.9 4 Norte 10 Norte 0 982.8 -- 57
2020-10-27 11:00:00 11.8 3 Este 6 Este 0 983 -- 72
2020-10-27 10:00:00 7.7 3 Norte 5 Noroeste 0 983.3 -- 90
2020-10-27 09:00:00 4.6 0 Calma 5 Noroeste 0 983.3 -- 92
2020-10-27 08:00:00 3 3 Nordeste 5 Nordeste 0 982.7 -- 93
2020-10-27 07:00:00 3.2 3 Este 6 Sudeste 0 982.3 -- 92
2020-10-27 06:00:00 2.8 3 Sur 7 Sur 0 982.5 -- 92
2020-10-27 05:00:00 2.9 0 Calma 6 Sudeste 0 982.7 -- 93
2020-10-27 04:00:00 2.7 6 Sudeste 8 Sudeste 0 982.6 -- 92
2020-10-27 03:00:00 3.4 4 Este 6 Nordeste 0 982.9 -- 92
2020-10-27 02:00:00 3.7 2 Nordeste 10 Noroeste 0 983.1 -- 90
2020-10-27 01:00:00 4.9 6 Noroeste 9 Noroeste 0 983.1 -- 89
2020-10-27 00:00:00 5.7 6 Noroeste 9 Noroeste 0 983.3 -- 87
2020-10-26 23:00:00 7.2 5 Este 8 Sudeste 0 983.2 -- 83
2020-10-26 22:00:00 8.5 2 Este 10 Sur 0 983.1 -- 81
2020-10-26 21:00:00 8.4 5 Sur 12 Sur 0 982.9 -- 80
2020-10-26 20:00:00 9.1 8 Noroeste 12 Norte 0.2 982.6 -- 77
2020-10-26 19:00:00 10.4 8 Norte 16 Norte 0 981.9 -- 72
2020-10-26 18:00:00 12.2 13 Norte 33 Noroeste 0 981.2 -- 67
2020-10-26 17:00:00 13.2 22 Noroeste 53 Noroeste 0 980.7 -- 59
2020-10-26 16:00:00 15.7 24 Oeste 41 Oeste 0 980.3 -- 46
2020-10-26 15:00:00 14.2 24 Oeste 50 Noroeste 0.2 980.3 -- 50
2020-10-26 14:00:00 14.8 33 Oeste 48 Oeste 0 980.2 -- 47
2020-10-26 13:00:00 14.6 30 Oeste 45 Noroeste 0.2 980.6 -- 47
2020-10-26 12:00:00 13.3 29 Oeste 42 Noroeste 0 980.7 -- 53
2020-10-26 11:00:00 12.1 25 Noroeste 42 Noroeste 0 980.7 -- 60
2020-10-26 10:00:00 10.5 24 Oeste 38 Oeste 0.2 980.1 -- 66
2020-10-26 09:00:00 8.4 28 Noroeste 37 Oeste 0 979.5 -- 75
2020-10-26 08:00:00 7.9 21 Noroeste 32 Noroeste 0 978.6 -- 78
2020-10-26 07:00:00 7.7 21 Noroeste 33 Oeste 0.2 977.8 -- 78
2020-10-26 06:00:00 8 22 Noroeste 30 Noroeste 0 977.1 -- 80
2020-10-26 05:00:00 8 16 Noroeste 22 Noroeste 0.2 976.7 -- 83
2020-10-26 04:00:00 8.2 10 Oeste 22 Oeste 0 976.5 -- 85
2020-10-26 03:00:00 9.1 13 Noroeste 18 Oeste 0 976.6 -- 81
2020-10-26 02:00:00 9.8 12 Noroeste 30 Norte 0.2 976.9 -- 81
2020-10-26 01:00:00 10 16 Noroeste 27 Noroeste 0 976.5 -- 82
2020-10-26 00:00:00 10.6 12 Oeste 21 Noroeste 0.2 976.4 -- 87